createdAt,value
2018-01-12T00:01:52.330Z,22.87
2018-01-12T00:04:20.775Z,21.60
2018-01-12T00:06:57.870Z,23.43
2018-01-12T00:09:26.138Z,22.67
2018-01-12T00:11:54.382Z,22.27
2018-01-12T00:14:22.635Z,23.40
2018-01-12T00:16:50.897Z,23.17
2018-01-12T00:19:19.146Z,23.30
2018-01-12T00:21:47.385Z,23.93
2018-01-12T00:24:15.761Z,24.87
2018-01-12T00:26:44.022Z,24.67
2018-01-12T00:29:12.265Z,23.80
2018-01-12T00:31:41.462Z,25.00
2018-01-12T00:34:10.474Z,22.10
2018-01-12T00:36:38.721Z,21.83
2018-01-12T00:39:06.990Z,20.37
2018-01-12T00:41:35.238Z,20.83
2018-01-12T00:44:03.492Z,21.53
2018-01-12T00:46:32.281Z,23.73
2018-01-12T00:49:00.528Z,23.33
2018-01-12T00:51:28.781Z,24.33
2018-01-12T00:53:57.525Z,23.70
2018-01-12T00:56:25.770Z,25.23
2018-01-12T00:58:54.013Z,23.80
2018-01-12T01:01:22.285Z,22.10
2018-01-12T01:03:50.526Z,22.97
2018-01-12T01:06:18.778Z,24.27
2018-01-12T01:08:47.865Z,25.20
2018-01-12T01:11:16.873Z,24.57
2018-01-12T01:13:45.117Z,24.23
2018-01-12T01:16:13.390Z,23.97
2018-01-12T01:18:41.645Z,24.10
2018-01-12T01:21:09.899Z,24.80
2018-01-12T01:23:38.170Z,22.97
2018-01-12T01:26:06.417Z,23.70
2018-01-12T01:28:35.425Z,23.40
2018-01-12T01:31:04.765Z,24.10
2018-01-12T01:33:33.026Z,23.93
2018-01-12T01:36:01.275Z,24.23
2018-01-12T01:38:29.545Z,25.27
2018-01-12T01:40:58.549Z,23.63
2018-01-12T01:43:27.566Z,24.83
2018-01-12T01:45:56.606Z,23.10
2018-01-12T01:48:36.545Z,23.67
2018-01-12T01:51:09.006Z,26.00
2018-01-12T01:53:37.270Z,25.10
2018-01-12T01:56:06.026Z,24.70
2018-01-12T01:58:35.062Z,24.53
2018-01-12T02:01:03.313Z,23.33
2018-01-12T02:03:31.561Z,24.20
2018-01-12T02:05:59.829Z,25.10
2018-01-12T02:08:28.084Z,25.00
2018-01-12T02:10:56.325Z,24.63
2018-01-12T02:13:25.026Z,24.63
2018-01-12T02:15:53.273Z,24.37
2018-01-12T02:18:21.527Z,24.20
2018-01-12T02:20:49.789Z,24.10
2018-01-12T02:23:18.033Z,26.00
2018-01-12T02:25:46.294Z,25.07
2018-01-12T02:28:14.558Z,25.00
2018-01-12T02:30:42.806Z,24.70
2018-01-12T02:33:11.054Z,27.17
2018-01-12T02:35:39.950Z,23.00
2018-01-12T02:38:08.182Z,24.03
2018-01-12T02:40:36.421Z,23.30
2018-01-12T02:43:04.686Z,24.47
2018-01-12T02:45:33.701Z,23.83
2018-01-12T02:48:01.954Z,22.37
2018-01-12T02:50:30.230Z,23.80
2018-01-12T02:52:58.477Z,23.70
2018-01-12T02:55:26.729Z,23.60
2018-01-12T02:57:55.551Z,23.53
2018-01-12T03:00:23.807Z,23.37
2018-01-12T03:02:52.041Z,24.30
2018-01-12T03:05:21.078Z,22.80
2018-01-12T03:07:49.325Z,23.50
2018-01-12T03:10:18.338Z,22.43
2018-01-12T03:12:46.610Z,24.40
2018-01-12T03:15:14.853Z,22.73
2018-01-12T03:17:43.105Z,23.93
2018-01-12T03:20:11.579Z,22.63
2018-01-12T03:22:39.826Z,21.80
2018-01-12T03:25:08.079Z,23.30
2018-01-12T03:27:36.345Z,22.70
2018-01-12T03:30:04.599Z,23.80
2018-01-12T03:32:32.849Z,23.13
2018-01-12T03:35:01.114Z,22.57
2018-01-12T03:37:29.361Z,23.40
2018-01-12T03:39:58.369Z,22.10
2018-01-12T03:42:26.990Z,23.73
2018-01-12T03:44:55.238Z,23.00
2018-01-12T03:47:23.493Z,23.47
2018-01-12T03:49:51.779Z,23.43
2018-01-12T03:52:20.794Z,25.43
2018-01-12T03:54:49.037Z,25.77
2018-01-12T03:57:17.306Z,24.10
2018-01-12T03:59:46.521Z,27.87
2018-01-12T04:02:15.535Z,25.77
2018-01-12T04:04:43.990Z,27.13
2018-01-12T04:07:12.247Z,26.27
2018-01-12T04:09:40.491Z,25.30
2018-01-12T04:12:08.766Z,25.30
2018-01-12T04:14:37.009Z,24.27
2018-01-12T04:17:05.262Z,25.20
2018-01-12T04:19:33.526Z,23.03
2018-01-12T04:22:01.778Z,23.10
2018-01-12T04:24:30.030Z,23.93
2018-01-12T04:26:58.426Z,25.10
2018-01-12T04:29:26.674Z,25.70
2018-01-12T04:31:54.914Z,26.30
2018-01-12T04:34:23.953Z,25.57
2018-01-12T04:36:52.206Z,26.70
2018-01-12T04:39:21.230Z,28.13
2018-01-12T04:41:49.506Z,26.93
2018-01-12T04:44:17.749Z,29.00
2018-01-12T04:46:46.001Z,28.53
2018-01-12T04:49:14.837Z,29.33
2018-01-12T04:51:43.090Z,25.53
2018-01-12T04:54:12.098Z,26.10
2018-01-12T04:56:41.140Z,27.83
2018-01-12T04:59:09.387Z,28.50
2018-01-12T05:01:37.845Z,28.07
2018-01-12T05:04:06.882Z,28.67
2018-01-12T05:06:35.134Z,27.20
2018-01-12T05:09:03.494Z,30.53
2018-01-12T05:11:32.040Z,28.90
2018-01-12T05:14:00.278Z,29.03
2018-01-12T05:16:28.526Z,28.87
2018-01-12T05:18:56.802Z,29.53
2018-01-12T05:21:25.830Z,29.40
2018-01-12T05:23:54.206Z,30.63
2018-01-12T05:26:22.473Z,27.27
2018-01-12T05:28:50.727Z,27.80
2018-01-12T05:31:19.156Z,30.70
2018-01-12T05:33:47.755Z,29.10
2018-01-12T05:36:16.073Z,30.20
2018-01-12T05:38:44.616Z,31.80
2018-01-12T05:41:12.866Z,31.63
2018-01-12T05:43:41.114Z,28.93
2018-01-12T05:46:09.610Z,30.07
2018-01-12T05:48:37.873Z,28.80
2018-01-12T05:51:06.122Z,29.97
2018-01-12T05:53:34.374Z,27.60
2018-01-12T05:56:02.878Z,27.50
2018-01-12T05:58:31.121Z,26.27
2018-01-12T06:01:11.205Z,25.00
2018-01-12T06:06:45.826Z,23.77
2018-01-12T06:09:14.074Z,22.60
2018-01-12T06:11:42.326Z,23.77
2018-01-12T06:14:10.900Z,25.03
2018-01-12T06:16:39.176Z,26.87
2018-01-12T06:19:07.414Z,25.23
2018-01-12T06:21:35.698Z,28.40
2018-01-12T06:24:03.984Z,27.90
2018-01-12T06:26:32.214Z,28.30
2018-01-12T06:29:00.741Z,27.70
2018-01-12T06:31:28.975Z,26.40
2018-01-12T06:33:57.237Z,27.63
2018-01-12T06:36:28.349Z,27.20
2018-01-12T06:38:56.578Z,26.10
2018-01-12T06:41:24.830Z,26.40
2018-01-12T06:43:53.097Z,26.90
2018-01-12T06:46:22.114Z,26.77
2018-01-12T06:48:50.365Z,28.50
2018-01-12T06:51:19.401Z,27.63
2018-01-12T06:53:47.650Z,25.87
2018-01-12T06:56:15.894Z,31.57
2018-01-12T06:58:44.230Z,33.10
2018-01-12T07:01:12.473Z,32.93
2018-01-12T07:03:40.959Z,28.97
2018-01-12T07:06:09.994Z,31.50
2018-01-12T07:08:38.234Z,31.97
2018-01-12T07:11:06.482Z,32.17
2018-01-12T07:13:34.750Z,31.20
2018-01-12T07:16:03.017Z,30.20
2018-01-12T07:18:31.250Z,30.30
2018-01-12T07:21:11.633Z,30.70
2018-01-12T07:23:44.446Z,30.07
2018-01-12T07:26:12.713Z,31.60
2018-01-12T07:28:40.952Z,30.67
2018-01-12T07:31:09.202Z,30.70
2018-01-12T07:33:37.474Z,27.27
2018-01-12T07:36:06.485Z,26.70
2018-01-12T07:38:35.493Z,22.77
2018-01-12T07:41:04.198Z,25.13
2018-01-12T07:43:32.446Z,24.83
2018-01-12T07:46:00.772Z,25.10
2018-01-12T07:48:29.017Z,25.03
2018-01-12T07:50:57.262Z,24.77
2018-01-12T07:53:25.510Z,23.30
2018-01-12T07:55:53.777Z,24.27
2018-01-12T07:58:22.021Z,25.23
2018-01-12T08:00:57.302Z,24.73
2018-01-12T08:03:25.554Z,26.80
2018-01-12T08:05:54.141Z,28.47
2018-01-12T08:08:22.409Z,27.17
2018-01-12T08:10:50.662Z,28.87
2018-01-12T08:13:18.909Z,28.57
2018-01-12T08:15:47.177Z,28.83
2018-01-12T08:18:15.421Z,28.10
2018-01-12T08:20:43.669Z,25.73
2018-01-12T08:23:12.216Z,25.70
2018-01-12T08:25:40.463Z,26.10
2018-01-12T08:28:08.717Z,27.17
2018-01-12T08:30:36.989Z,26.73
2018-01-12T08:33:05.242Z,25.67
2018-01-12T08:35:33.685Z,26.10
2018-01-12T08:38:01.955Z,25.27
2018-01-12T08:40:30.209Z,25.73
2018-01-12T08:42:58.517Z,26.17
2018-01-12T08:45:27.950Z,27.13
2018-01-12T08:47:56.201Z,25.43
2018-01-12T08:50:24.445Z,26.20
2018-01-12T08:52:53.905Z,27.47
2018-01-12T08:55:22.921Z,27.97
2018-01-12T08:57:51.253Z,27.50
2018-01-12T09:00:19.530Z,27.23
2018-01-12T09:02:48.934Z,26.40
2018-01-12T09:05:17.186Z,25.60
2018-01-12T09:07:45.509Z,26.73
2018-01-12T09:10:13.761Z,24.67
2018-01-12T09:12:42.342Z,24.73
2018-01-12T09:15:22.457Z,26.37
2018-01-12T09:17:50.894Z,25.27
2018-01-12T09:20:19.261Z,27.53
2018-01-12T09:22:48.482Z,27.33
2018-01-12T09:25:25.570Z,26.87
2018-01-12T09:27:54.605Z,26.70
2018-01-12T09:30:23.124Z,25.83
2018-01-12T09:32:51.349Z,27.20
2018-01-12T09:35:19.622Z,28.30
2018-01-12T09:37:59.657Z,29.07
2018-01-12T09:40:46.685Z,28.10
2018-01-12T09:43:16.145Z,28.70
2018-01-12T09:45:44.393Z,26.77
2018-01-12T09:48:22.553Z,25.40
2018-01-12T09:50:50.798Z,26.13
2018-01-12T09:53:19.037Z,26.77
2018-01-12T09:55:47.405Z,27.87
2018-01-12T09:58:15.669Z,26.40
2018-01-12T10:01:00.338Z,25.33
2018-01-12T10:03:29.382Z,27.30
2018-01-12T10:05:57.661Z,28.20
2018-01-12T10:08:26.700Z,27.73
2018-01-12T10:10:55.704Z,27.20
2018-01-12T10:13:23.957Z,25.87
2018-01-12T10:15:52.684Z,27.23
2018-01-12T10:18:32.805Z,27.53
2018-01-12T10:24:01.661Z,26.80
2018-01-12T10:26:29.925Z,29.10
2018-01-12T10:29:06.844Z,27.60
2018-01-12T10:31:47.108Z,26.73
2018-01-12T10:34:23.841Z,27.87
2018-01-12T10:36:55.037Z,27.60
2018-01-12T10:39:23.284Z,29.33
2018-01-12T10:42:04.337Z,28.80
2018-01-12T10:44:32.644Z,28.13
2018-01-12T10:47:16.689Z,28.27
2018-01-12T10:49:57.437Z,28.20
2018-01-12T10:52:37.481Z,28.30
2018-01-12T10:55:05.738Z,29.20
2018-01-12T10:57:33.990Z,30.37
2018-01-12T11:00:04.258Z,28.20
2018-01-12T11:02:32.585Z,28.20
2018-01-12T11:05:01.877Z,29.13
2018-01-12T11:07:30.347Z,28.23
2018-01-12T11:09:58.585Z,28.20
2018-01-12T11:12:26.835Z,28.90
2018-01-12T11:14:56.340Z,29.03
2018-01-12T11:17:25.349Z,31.33
2018-01-12T11:19:56.034Z,31.27
2018-01-12T11:22:25.505Z,31.40
2018-01-12T11:24:53.754Z,27.30
2018-01-12T11:27:22.157Z,29.80
2018-01-12T11:29:51.902Z,29.93
2018-01-12T11:32:21.889Z,30.53
2018-01-12T11:34:53.646Z,29.70
2018-01-12T11:37:22.601Z,30.27
2018-01-12T11:39:51.007Z,28.33
2018-01-12T11:42:20.505Z,27.37
2018-01-12T11:44:49.522Z,29.90
2018-01-12T11:47:17.769Z,28.40
2018-01-12T11:49:46.724Z,30.00
2018-01-12T11:52:14.949Z,31.23
2018-01-12T11:54:43.193Z,30.50
2018-01-12T11:57:11.472Z,30.00
2018-01-12T11:59:39.725Z,29.73
2018-01-12T12:02:07.969Z,28.63
2018-01-12T12:04:36.242Z,30.70
2018-01-12T12:07:04.493Z,30.03
2018-01-12T12:09:32.977Z,31.37
2018-01-12T12:12:02.317Z,30.00
2018-01-12T12:14:30.562Z,29.40
2018-01-12T12:16:59.001Z,30.40
2018-01-12T12:19:27.271Z,33.93
2018-01-12T12:21:55.532Z,29.10
2018-01-12T12:24:23.778Z,30.50
2018-01-12T12:26:52.113Z,31.70
2018-01-12T12:29:20.485Z,31.07
2018-01-12T12:31:48.709Z,30.63
2018-01-12T12:34:18.051Z,32.27
2018-01-12T12:36:46.301Z,32.53
2018-01-12T12:39:14.554Z,31.53
2018-01-12T12:41:42.824Z,30.57
2018-01-12T12:44:11.870Z,31.80
2018-01-12T12:46:40.121Z,31.20
2018-01-12T12:49:08.925Z,30.47
2018-01-12T12:51:37.241Z,31.17
2018-01-12T12:54:05.522Z,33.17
2018-01-12T12:56:34.066Z,31.30
2018-01-12T12:59:02.313Z,29.67
2018-01-12T13:01:30.559Z,27.30
2018-01-12T13:03:58.824Z,27.47
2018-01-12T13:06:27.095Z,27.50
2018-01-12T13:08:55.325Z,27.77
2018-01-12T13:11:24.020Z,28.33
2018-01-12T13:13:52.274Z,27.93
2018-01-12T13:16:20.517Z,26.90
2018-01-12T13:18:49.912Z,27.50
2018-01-12T13:21:18.154Z,26.77
2018-01-12T13:23:46.401Z,27.80
2018-01-12T13:26:14.669Z,26.63
2018-01-12T13:28:42.922Z,25.63
2018-01-12T13:31:12.226Z,27.00
2018-01-12T13:33:40.510Z,26.23
2018-01-12T13:36:08.760Z,26.87
2018-01-12T13:38:37.184Z,24.90
2018-01-12T13:41:06.738Z,24.40
2018-01-12T13:43:34.992Z,23.83
2018-01-12T13:46:03.229Z,25.00
2018-01-12T13:48:32.265Z,25.80
2018-01-12T13:51:00.525Z,24.10
2018-01-12T13:53:29.545Z,24.93
2018-01-12T13:55:57.828Z,25.47
2018-01-12T13:58:26.085Z,23.70
2018-01-12T14:00:54.351Z,25.67
2018-01-12T14:03:23.677Z,23.37
2018-01-12T14:05:51.922Z,25.70
2018-01-12T14:08:20.168Z,25.50
2018-01-12T14:10:48.447Z,25.57
2018-01-12T14:13:16.847Z,26.67
2018-01-12T14:15:45.211Z,23.60
2018-01-12T14:18:13.469Z,26.87
2018-01-12T14:20:41.713Z,25.57
2018-01-12T14:23:09.972Z,25.23
2018-01-12T14:25:38.789Z,26.70
2018-01-12T14:28:07.034Z,24.10
2018-01-12T14:30:35.286Z,25.50
2018-01-12T14:33:03.570Z,23.43
2018-01-12T14:35:32.582Z,24.40
2018-01-12T14:38:01.593Z,24.17
2018-01-12T14:40:29.870Z,25.23
2018-01-12T14:42:58.182Z,22.60
2018-01-12T14:45:26.414Z,25.00
2018-01-12T14:47:55.244Z,24.40
2018-01-12T14:50:23.474Z,24.93
2018-01-12T14:52:51.716Z,25.83
2018-01-12T14:55:19.997Z,24.87
2018-01-12T14:57:48.230Z,25.33
2018-01-12T15:00:16.473Z,24.10
2018-01-12T15:02:44.741Z,24.40
2018-01-12T15:05:14.010Z,23.13
2018-01-12T15:07:42.262Z,21.83
2018-01-12T15:10:10.674Z,23.17
2018-01-12T15:12:38.927Z,23.10
2018-01-12T15:15:07.174Z,23.70
2018-01-12T15:17:35.450Z,23.23
2018-01-12T15:20:03.698Z,24.17
2018-01-12T15:22:32.718Z,25.90
2018-01-12T15:25:01.219Z,22.17
2018-01-12T15:27:29.472Z,24.10
2018-01-12T15:29:57.797Z,24.63
2018-01-12T15:32:26.258Z,24.23
2018-01-12T15:34:54.504Z,24.80
2018-01-12T15:37:22.770Z,24.47
2018-01-12T15:39:51.062Z,24.83
2018-01-12T15:42:19.310Z,23.30
2018-01-12T15:44:47.561Z,24.50
2018-01-12T15:47:15.913Z,23.90
2018-01-12T15:49:44.141Z,25.33
2018-01-12T15:52:12.389Z,25.03
2018-01-12T15:54:40.888Z,25.20
2018-01-12T15:57:09.117Z,25.00
2018-01-12T15:59:37.433Z,25.63
2018-01-12T16:02:05.710Z,23.30
2018-01-12T16:04:33.961Z,26.37
2018-01-12T16:07:02.217Z,26.27
2018-01-12T16:09:30.485Z,26.70
2018-01-12T16:11:58.729Z,24.60
2018-01-12T16:14:27.173Z,25.43
2018-01-12T16:16:55.689Z,26.40
2018-01-12T16:19:23.909Z,24.20
2018-01-12T16:21:52.153Z,24.80
2018-01-12T16:24:20.421Z,25.80
2018-01-12T16:26:48.717Z,24.70
2018-01-12T16:29:17.729Z,25.10
2018-01-12T16:31:46.006Z,25.60
2018-01-12T16:34:14.257Z,27.30
2018-01-12T16:36:42.506Z,27.83
2018-01-12T16:39:17.261Z,25.40
2018-01-12T16:41:39.222Z,23.67
2018-01-12T16:44:07.465Z,26.17
2018-01-12T16:46:35.753Z,26.40
2018-01-12T16:49:04.765Z,24.07
2018-01-12T16:51:33.125Z,26.00
2018-01-12T16:54:02.161Z,24.80
2018-01-12T16:56:30.413Z,25.20
2018-01-12T16:58:58.650Z,21.87
2018-01-12T17:01:27.865Z,21.40
2018-01-12T17:03:56.885Z,22.57
2018-01-12T17:06:25.130Z,23.30
2018-01-12T17:08:53.410Z,24.10
2018-01-12T17:11:21.669Z,24.07
2018-01-12T17:13:50.037Z,25.67
2018-01-12T17:16:18.310Z,22.63
2018-01-12T17:18:46.614Z,21.97
2018-01-12T17:21:14.883Z,22.90
2018-01-12T17:23:43.334Z,23.37
2018-01-12T17:26:11.629Z,24.00
2018-01-12T17:28:40.162Z,22.03
2018-01-12T17:31:08.441Z,25.33
2018-01-12T17:33:36.775Z,22.30
2018-01-12T17:36:09.469Z,24.30
2018-01-12T17:38:38.637Z,24.30
2018-01-12T17:41:07.021Z,23.37
2018-01-12T17:43:37.453Z,22.53
2018-01-12T17:46:07.881Z,23.23
2018-01-12T17:48:36.182Z,26.77
2018-01-12T17:51:04.670Z,25.70
2018-01-12T17:53:34.873Z,24.27
2018-01-12T17:56:03.254Z,23.57
2018-01-12T17:58:31.674Z,23.90
2018-01-12T18:01:00.022Z,23.73
2018-01-12T18:03:29.314Z,23.37
2018-01-12T18:06:02.791Z,22.80
2018-01-12T18:08:31.298Z,22.37
2018-01-12T18:11:01.881Z,24.43
2018-01-12T18:13:34.171Z,23.70
2018-01-12T18:16:08.710Z,23.07
2018-01-12T18:18:37.155Z,24.47
2018-01-12T18:21:06.578Z,22.13
2018-01-12T18:23:36.786Z,24.20
2018-01-12T18:26:06.302Z,24.20
2018-01-12T18:28:35.460Z,24.27
2018-01-12T18:31:04.817Z,24.30
2018-01-12T18:33:33.221Z,24.57
2018-01-12T18:36:02.233Z,23.37
2018-01-12T18:38:30.573Z,24.83
2018-01-12T18:40:58.862Z,26.40
2018-01-12T18:43:27.361Z,24.50
2018-01-12T18:45:56.374Z,23.90
2018-01-12T18:48:25.234Z,23.17
2018-01-12T18:50:53.689Z,26.27
2018-01-12T18:53:22.051Z,25.13
2018-01-12T18:55:51.423Z,24.50
2018-01-12T18:58:20.642Z,24.47
2018-01-12T19:00:49.040Z,24.83
2018-01-12T19:03:18.372Z,23.50
2018-01-12T19:05:49.515Z,23.60
2018-01-12T19:08:18.019Z,23.00
2018-01-12T19:10:48.205Z,23.23
2018-01-12T19:13:16.473Z,26.47
2018-01-12T19:15:45.493Z,24.27
2018-01-12T19:18:15.103Z,24.33
2018-01-12T19:20:45.316Z,23.17
2018-01-12T19:23:14.621Z,21.97
2018-01-12T19:25:43.005Z,20.73
2018-01-12T19:28:13.213Z,21.93
2018-01-12T19:30:42.510Z,23.03
2018-01-12T19:33:10.967Z,22.37
2018-01-12T19:35:40.185Z,22.67
2018-01-12T19:38:09.485Z,23.50
2018-01-12T19:40:38.817Z,23.60
2018-01-12T19:43:07.838Z,21.70
2018-01-12T19:45:37.486Z,21.90
2018-01-12T19:48:06.177Z,22.10
2018-01-12T19:50:34.650Z,23.80
2018-01-12T19:53:02.894Z,22.07
2018-01-12T19:55:34.167Z,21.77
2018-01-12T19:58:02.393Z,21.50
2018-01-12T20:00:31.405Z,21.50
2018-01-12T20:02:59.682Z,19.47
2018-01-12T20:05:28.106Z,19.80
2018-01-12T20:07:56.486Z,20.30
2018-01-12T20:10:24.918Z,20.23
2018-01-12T20:12:53.281Z,20.00
2018-01-12T20:15:22.430Z,20.20
2018-01-12T20:17:51.001Z,20.40
2018-01-12T20:20:20.529Z,20.10
2018-01-12T20:22:49.000Z,20.37
2018-01-12T20:25:17.329Z,20.10
2018-01-12T20:27:45.805Z,19.37
2018-01-12T20:30:14.086Z,20.83
2018-01-12T20:32:43.385Z,21.30
2018-01-12T20:35:12.412Z,17.30
2018-01-12T20:37:40.886Z,19.40
2018-01-12T20:40:09.206Z,19.57
2018-01-12T20:42:37.488Z,21.50
2018-01-12T20:45:06.053Z,20.07
2018-01-12T20:47:36.473Z,19.03
2018-01-12T20:50:04.737Z,19.33
2018-01-12T20:52:33.821Z,20.00
2018-01-12T20:55:02.169Z,20.97
2018-01-12T20:57:31.189Z,19.80
2018-01-12T20:59:59.522Z,17.93
2018-01-12T21:02:27.969Z,20.90
2018-01-12T21:04:57.189Z,21.70
2018-01-12T21:07:25.767Z,20.13
2018-01-12T21:09:55.210Z,20.10
2018-01-12T21:12:24.221Z,22.47
2018-01-12T21:14:52.758Z,21.23
2018-01-12T21:17:21.073Z,20.07
2018-01-12T21:19:49.485Z,20.30
2018-01-12T21:22:17.738Z,20.63
2018-01-12T21:24:47.245Z,21.40
2018-01-12T21:27:15.501Z,21.53
2018-01-12T21:29:44.674Z,22.27
2018-01-12T21:32:12.981Z,22.17
2018-01-12T21:34:41.446Z,21.40
2018-01-12T21:37:09.677Z,20.80
2018-01-12T21:39:37.954Z,22.67
2018-01-12T21:42:06.196Z,22.63
2018-01-12T21:44:34.463Z,22.73
2018-01-12T21:47:03.642Z,22.73
2018-01-12T21:49:31.957Z,20.87
2018-01-12T21:52:00.197Z,22.73
2018-01-12T21:54:28.469Z,22.73
2018-01-12T21:56:56.846Z,20.53
2018-01-12T21:59:25.093Z,21.53
2018-01-12T22:01:53.357Z,21.67
2018-01-12T22:04:21.610Z,21.73
2018-01-12T22:06:50.049Z,22.37
2018-01-12T22:09:18.510Z,22.60
2018-01-12T22:11:46.770Z,20.93
2018-01-12T22:14:15.801Z,23.37
2018-01-12T22:16:44.078Z,22.40
2018-01-12T22:19:12.343Z,23.23
2018-01-12T22:21:40.589Z,28.33
2018-01-12T22:24:08.885Z,23.30
2018-01-12T22:26:37.142Z,22.30
2018-01-12T22:29:05.394Z,22.90
2018-01-12T22:31:33.934Z,22.23
2018-01-12T22:34:02.178Z,23.00
2018-01-12T22:36:30.422Z,22.47
2018-01-12T22:38:59.461Z,21.30
2018-01-12T22:41:27.701Z,21.00
2018-01-12T22:43:56.721Z,24.57
2018-01-12T22:46:25.081Z,22.47
2018-01-12T22:48:54.069Z,23.10
2018-01-12T22:51:23.101Z,24.37
2018-01-12T22:53:51.529Z,23.40
2018-01-12T22:56:19.777Z,22.90
2018-01-12T22:58:48.030Z,22.83
2018-01-12T23:01:16.309Z,22.67
2018-01-12T23:03:44.811Z,23.80
2018-01-12T23:06:13.038Z,24.47
2018-01-12T23:08:41.309Z,25.40
2018-01-12T23:11:09.562Z,24.40
2018-01-12T23:13:37.813Z,23.70
2018-01-12T23:16:06.276Z,24.50
2018-01-12T23:18:34.521Z,25.40
2018-01-12T23:21:02.775Z,22.97
2018-01-12T23:23:31.236Z,23.30
2018-01-12T23:26:00.033Z,24.23
2018-01-12T23:28:28.281Z,24.07
2018-01-12T23:30:56.603Z,21.30
2018-01-12T23:33:24.833Z,23.33
2018-01-12T23:35:53.082Z,23.20
2018-01-12T23:38:21.698Z,22.47
2018-01-12T23:40:49.950Z,21.90
2018-01-12T23:43:18.205Z,21.90
2018-01-12T23:45:47.417Z,23.20
2018-01-12T23:48:15.668Z,24.63
2018-01-12T23:50:43.921Z,22.80
2018-01-12T23:53:12.201Z,22.80
2018-01-12T23:55:40.450Z,22.50
2018-01-12T23:58:08.702Z,22.20
